SBOSBO MNL / RPLL
Speedbird OnlineSpeedbird Online MNL / RPLL

Ninoy Aquino International Airport
13:01 31.6°C

Location Manila, Philippines
Latitude: 14.5086
Longitude: 121.019997
Altitude 23 Meter / 75 Feet
Distance 10,731 KM / 6,668 Miles
from London.
Time Zone UTC +8 hours (Asia/Manila)
Codes IATA: MNL
ICAO: RPLL
Currency £1 equals PHP 67.49
METAR RPLL 160400Z 21010KT 9999 FEW025 SCT300 30/25 Q1008 NOSIG RMK A2977
TAF TAF RPLL 152300Z 1600/1706 24005KT 9000 SCT023 BKN100 TX30/1605Z TN25/1621Z BECMG 1604/1606 26013KT TEMPO 1606/1612 5000 SHRA FEW022CB SCT023 OVC090
Weather As Of 16 Aug 2022 13:01
Description Broken clouds
Wind 5 km/h from West (255°)
Cloud Cover 78%
Precipitation Rain: none, Snow: none
Sunrise 05:42
Sunset 18:18
Lounges Club Manila Lounge, Departure Area, Terminal 1
Japan Airlines Sakura Lounge -Temporarily Closed, Terminal 1
Cathay Pacific Lounge (Temporarily Closed), Terminal 3
PAGSS Lounge, Terminal 3
Rotations During the last 90 days there were
1 flights from MAD
1 flights to LHR


© 2017-2022 Speedbird Online